createdAt,value
2018-06-04T00:01:56.437Z,61.90
2018-06-04T00:04:26.617Z,62.10
2018-06-04T00:06:57.323Z,62.20
2018-06-04T00:09:27.453Z,62.40
2018-06-04T00:11:57.575Z,62.50
2018-06-04T00:14:27.619Z,62.70
2018-06-04T00:16:57.725Z,62.80
2018-06-04T00:19:27.783Z,63.10
2018-06-04T00:21:57.877Z,63.20
2018-06-04T00:24:27.959Z,63.30
2018-06-04T00:26:58.061Z,63.30
2018-06-04T00:29:28.202Z,63.60
2018-06-04T00:31:58.275Z,63.80
2018-06-04T00:34:28.420Z,63.90
2018-06-04T00:36:58.532Z,64.20
2018-06-04T00:39:28.634Z,64.30
2018-06-04T00:41:58.732Z,64.50
2018-06-04T00:44:28.770Z,64.70
2018-06-04T00:46:58.845Z,64.90
2018-06-04T00:49:29.926Z,65.00
2018-06-04T00:52:00.032Z,65.10
2018-06-04T00:54:30.080Z,65.30
2018-06-04T00:57:00.224Z,65.40
2018-06-04T00:59:30.297Z,65.40
2018-06-04T01:02:00.448Z,65.50
2018-06-04T01:04:30.527Z,65.70
2018-06-04T01:07:00.676Z,65.80
2018-06-04T01:09:30.896Z,65.80
2018-06-04T01:12:00.991Z,66.10
2018-06-04T01:14:31.172Z,66.30
2018-06-04T01:17:01.216Z,66.50
2018-06-04T01:19:31.378Z,66.50
2018-06-04T01:22:01.450Z,66.70
2018-06-04T01:24:31.540Z,66.80
2018-06-04T01:27:01.577Z,66.80
2018-06-04T01:29:31.668Z,67.00
2018-06-04T01:32:01.688Z,67.00
2018-06-04T01:34:31.782Z,67.10
2018-06-04T01:37:01.904Z,66.70
2018-06-04T01:39:32.024Z,67.30
2018-06-04T01:44:32.196Z,67.50
2018-06-04T01:47:02.434Z,67.70
2018-06-04T01:49:32.472Z,67.70
2018-06-04T01:52:02.746Z,67.90
2018-06-04T01:54:32.797Z,67.60
2018-06-04T01:57:02.892Z,67.80
2018-06-04T01:59:33.106Z,68.60
2018-06-04T02:02:03.226Z,68.10
2018-06-04T02:04:33.293Z,68.30
2018-06-04T02:07:03.518Z,68.50
2018-06-04T02:09:33.602Z,68.70
2018-06-04T02:12:03.619Z,68.90
2018-06-04T02:14:33.824Z,69.00
2018-06-04T02:17:03.932Z,69.10
2018-06-04T02:19:34.058Z,69.30
2018-06-04T02:22:04.073Z,69.50
2018-06-04T02:24:34.124Z,69.40
2018-06-04T02:27:04.280Z,69.70
2018-06-04T02:29:34.413Z,69.60
2018-06-04T02:32:04.476Z,69.80
2018-06-04T02:34:34.862Z,69.80
2018-06-04T02:37:04.960Z,70.20
2018-06-04T02:39:34.961Z,70.10
2018-06-04T02:42:05.281Z,70.40
2018-06-04T02:44:35.408Z,70.50
2018-06-04T02:47:05.768Z,70.50
2018-06-04T02:49:35.888Z,70.50
2018-06-04T02:52:06.195Z,70.60
2018-06-04T02:54:36.411Z,70.70
2018-06-04T02:57:06.507Z,71.10
2018-06-04T02:59:36.570Z,71.00
2018-06-04T03:02:06.644Z,71.20
2018-06-04T03:04:36.745Z,71.30
2018-06-04T03:07:06.898Z,71.20
2018-06-04T03:09:37.054Z,71.40
2018-06-04T03:12:07.228Z,71.60
2018-06-04T03:14:37.281Z,71.80
2018-06-04T03:17:07.448Z,71.90
2018-06-04T03:19:37.584Z,72.00
2018-06-04T03:22:07.578Z,72.00
2018-06-04T03:24:37.644Z,71.90
2018-06-04T03:27:07.761Z,72.00
2018-06-04T03:29:37.891Z,72.30
2018-06-04T03:32:08.065Z,72.30
2018-06-04T03:34:38.105Z,72.30
2018-06-04T03:37:08.242Z,72.30
2018-06-04T03:39:38.381Z,72.70
2018-06-04T03:42:08.373Z,72.50
2018-06-04T03:44:38.450Z,72.50
2018-06-04T03:47:08.517Z,72.50
2018-06-04T03:49:38.603Z,72.50
2018-06-04T03:52:08.754Z,72.50
2018-06-04T03:54:38.907Z,72.60
2018-06-04T03:57:08.933Z,72.80
2018-06-04T03:59:39.091Z,72.80
2018-06-04T04:02:09.294Z,72.80
2018-06-04T04:04:39.367Z,72.90
2018-06-04T04:07:09.511Z,73.10
2018-06-04T04:09:39.668Z,73.10
2018-06-04T04:12:10.354Z,73.30
2018-06-04T04:14:40.484Z,73.30
2018-06-04T04:17:10.566Z,73.50
2018-06-04T04:19:40.645Z,73.50
2018-06-04T04:22:10.814Z,73.50
2018-06-04T04:27:10.624Z,73.80
2018-06-04T04:29:40.646Z,74.60
2018-06-04T04:32:10.737Z,73.80
2018-06-04T04:34:40.760Z,73.80
2018-06-04T04:37:10.848Z,73.80
2018-06-04T04:39:40.988Z,73.70
2018-06-04T04:42:11.055Z,73.70
2018-06-04T04:44:41.129Z,73.70
2018-06-04T04:47:11.213Z,73.30
2018-06-04T04:49:41.340Z,73.10
2018-06-04T04:52:11.468Z,73.10
2018-06-04T04:54:41.618Z,73.40
2018-06-04T04:57:11.738Z,73.20
2018-06-04T04:59:41.981Z,72.90
2018-06-04T05:02:12.128Z,72.90
2018-06-04T05:04:42.178Z,73.10
2018-06-04T05:07:12.373Z,73.00
2018-06-04T05:09:42.502Z,72.80
2018-06-04T05:12:12.615Z,73.00
2018-06-04T05:14:42.714Z,73.10
2018-06-04T05:17:12.864Z,73.50
2018-06-04T05:19:42.942Z,73.30
2018-06-04T05:22:13.104Z,73.40
2018-06-04T05:24:43.348Z,73.40
2018-06-04T05:27:13.467Z,73.40
2018-06-04T05:29:43.626Z,73.30
2018-06-04T05:32:13.734Z,73.10
2018-06-04T05:34:43.774Z,73.00
2018-06-04T05:37:13.850Z,72.70
2018-06-04T05:39:43.970Z,73.10
2018-06-04T05:42:14.076Z,73.30
2018-06-04T05:44:44.274Z,72.70
2018-06-04T05:47:15.005Z,73.20
2018-06-04T05:49:45.106Z,73.10
2018-06-04T05:52:15.160Z,73.00
2018-06-04T05:54:45.219Z,72.90
2018-06-04T05:57:15.336Z,73.10
2018-06-04T05:59:45.475Z,73.20
2018-06-04T06:02:15.675Z,73.10
2018-06-04T06:04:45.760Z,73.20
2018-06-04T06:07:15.855Z,73.00
2018-06-04T06:12:15.583Z,72.70
2018-06-04T06:14:45.615Z,72.50
2018-06-04T06:17:15.684Z,71.50
2018-06-04T06:19:45.850Z,71.10
2018-06-04T06:22:15.887Z,70.90
2018-06-04T06:24:45.907Z,70.50
2018-06-04T06:27:15.969Z,70.30
2018-06-04T06:29:46.164Z,70.70
2018-06-04T06:32:16.303Z,71.20
2018-06-04T06:34:47.271Z,70.60
2018-06-04T06:37:17.485Z,70.00
2018-06-04T06:39:47.519Z,70.10
2018-06-04T06:42:17.564Z,70.00
2018-06-04T06:44:47.778Z,69.20
2018-06-04T06:47:17.896Z,68.50
2018-06-04T06:49:48.019Z,68.10
2018-06-04T06:52:18.021Z,67.70
2018-06-04T06:54:48.294Z,67.20
2018-06-04T06:59:48.219Z,66.80
2018-06-04T07:02:19.838Z,66.50
2018-06-04T07:04:49.921Z,66.40
2018-06-04T07:07:19.917Z,65.90
2018-06-04T07:09:50.046Z,65.40
2018-06-04T07:12:20.153Z,65.50
2018-06-04T07:14:50.164Z,65.30
2018-06-04T07:17:20.331Z,65.90
2018-06-04T07:19:50.554Z,65.30
2018-06-04T07:24:50.364Z,65.40
2018-06-04T07:27:20.414Z,65.70
2018-06-04T07:29:50.448Z,64.80
2018-06-04T07:32:20.551Z,65.10
2018-06-04T07:34:50.725Z,65.00
2018-06-04T07:37:20.775Z,64.60
2018-06-04T07:39:50.799Z,64.50
2018-06-04T07:42:20.903Z,64.60
2018-06-04T07:44:51.128Z,63.40
2018-06-04T07:47:21.334Z,63.70
2018-06-04T07:52:32.870Z,63.40
2018-06-04T07:55:03.040Z,63.10
2018-06-04T07:57:33.172Z,62.90
2018-06-04T08:00:03.355Z,62.50
2018-06-04T08:02:33.403Z,62.20
2018-06-04T08:05:03.463Z,61.80
2018-06-04T08:07:33.511Z,61.10
2018-06-04T08:10:03.750Z,60.80
2018-06-04T08:12:33.770Z,60.50
2018-06-04T08:15:03.953Z,60.30
2018-06-04T08:17:34.035Z,60.90
2018-06-04T08:20:08.046Z,59.60
2018-06-04T08:22:38.166Z,59.40
2018-06-04T08:25:08.361Z,59.30
2018-06-04T08:27:39.367Z,59.20
2018-06-04T08:30:09.984Z,59.50
2018-06-04T08:32:39.964Z,58.70
2018-06-04T08:35:10.109Z,57.10
2018-06-04T08:37:40.303Z,56.30
2018-06-04T08:40:10.387Z,56.40
2018-06-04T08:42:40.476Z,56.30
2018-06-04T08:45:10.570Z,56.00
2018-06-04T08:47:40.627Z,55.80
2018-06-04T08:50:10.733Z,55.40
2018-06-04T08:52:40.792Z,55.00
2018-06-04T08:55:10.890Z,54.90
2018-06-04T08:57:40.977Z,55.30
2018-06-04T09:00:11.442Z,54.40
2018-06-04T09:02:41.466Z,53.80
2018-06-04T09:05:11.680Z,53.30
2018-06-04T09:07:41.735Z,53.10
2018-06-04T09:10:11.840Z,52.90
2018-06-04T09:12:42.097Z,53.10
2018-06-04T09:15:12.268Z,51.70
2018-06-04T09:17:42.493Z,51.60
2018-06-04T09:20:12.466Z,52.50
2018-06-04T09:22:42.607Z,52.40
2018-06-04T09:25:12.644Z,51.80
2018-06-04T09:27:42.716Z,51.90
2018-06-04T09:30:12.858Z,51.00
2018-06-04T09:32:42.936Z,50.00
2018-06-04T09:35:13.040Z,48.80
2018-06-04T09:37:43.241Z,48.60
2018-06-04T09:40:13.251Z,49.10
2018-06-04T09:42:43.498Z,49.10
2018-06-04T09:45:13.542Z,49.20
2018-06-04T09:47:43.726Z,49.20
2018-06-04T09:50:13.817Z,49.00
2018-06-04T09:52:43.824Z,48.10
2018-06-04T09:55:14.007Z,47.90
2018-06-04T10:00:17.852Z,47.80
2018-06-04T10:02:47.969Z,46.80
2018-06-04T10:05:18.048Z,46.70
2018-06-04T10:07:48.133Z,46.10
2018-06-04T10:10:18.301Z,46.00
2018-06-04T10:12:48.448Z,46.60
2018-06-04T10:15:18.569Z,47.20
2018-06-04T10:17:49.061Z,47.60
2018-06-04T10:20:19.199Z,47.70
2018-06-04T10:22:49.346Z,46.80
2018-06-04T10:25:19.388Z,46.50
2018-06-04T10:27:49.511Z,46.50
2018-06-04T10:30:19.859Z,46.20
2018-06-04T10:32:50.040Z,45.60
2018-06-04T10:35:20.133Z,46.00
2018-06-04T10:37:50.295Z,45.30
2018-06-04T10:40:20.472Z,44.80
2018-06-04T10:42:50.583Z,44.40
2018-06-04T10:45:20.672Z,44.80
2018-06-04T10:47:51.439Z,44.80
2018-06-04T10:50:21.563Z,44.20
2018-06-04T10:52:51.635Z,44.30
2018-06-04T10:55:21.880Z,44.10
2018-06-04T10:57:51.972Z,43.40
2018-06-04T11:00:22.223Z,41.90
2018-06-04T11:02:52.853Z,41.30
2018-06-04T11:05:22.975Z,40.60
2018-06-04T11:07:52.989Z,40.80
2018-06-04T11:10:23.206Z,40.40
2018-06-04T11:12:53.333Z,40.60
2018-06-04T11:15:23.377Z,40.70
2018-06-04T11:17:53.490Z,40.80
2018-06-04T11:20:23.553Z,40.20
2018-06-04T11:22:53.686Z,40.20
2018-06-04T11:25:23.856Z,40.50
2018-06-04T11:27:53.953Z,40.30
2018-06-04T11:30:24.099Z,40.50
2018-06-04T11:32:54.101Z,40.30
2018-06-04T11:35:24.268Z,40.30
2018-06-04T11:37:54.305Z,40.00
2018-06-04T11:40:24.417Z,38.90
2018-06-04T11:42:54.540Z,38.90
2018-06-04T11:45:24.625Z,38.40
2018-06-04T11:47:54.797Z,38.80
2018-06-04T11:50:24.922Z,38.90
2018-06-04T11:52:55.104Z,38.60
2018-06-04T11:55:25.275Z,37.60
2018-06-04T11:57:55.887Z,37.40
2018-06-04T12:00:26.088Z,37.40
2018-06-04T12:02:56.194Z,37.40
2018-06-04T12:05:26.553Z,36.30
2018-06-04T12:07:56.640Z,36.80
2018-06-04T12:10:27.020Z,36.70
2018-06-04T12:12:57.056Z,36.10
2018-06-04T12:15:27.250Z,36.20
2018-06-04T12:17:57.332Z,36.20
2018-06-04T12:20:27.520Z,36.00
2018-06-04T12:22:57.686Z,35.90
2018-06-04T12:25:27.882Z,35.90
2018-06-04T12:27:58.372Z,36.10
2018-06-04T12:30:29.074Z,35.90
2018-06-04T12:32:59.218Z,35.50
2018-06-04T12:35:29.430Z,34.30
2018-06-04T12:37:59.540Z,34.60
2018-06-04T12:40:29.601Z,34.80
2018-06-04T12:43:00.416Z,34.80
2018-06-04T12:45:30.524Z,35.40
2018-06-04T12:48:00.663Z,34.90
2018-06-04T12:50:30.856Z,34.50
2018-06-04T12:53:00.976Z,34.40
2018-06-04T12:55:31.088Z,34.10
2018-06-04T12:58:02.218Z,34.10
2018-06-04T13:00:32.291Z,33.80
2018-06-04T13:03:02.388Z,33.90
2018-06-04T13:05:33.566Z,33.70
2018-06-04T13:08:03.608Z,33.80
2018-06-04T13:10:34.037Z,33.50
2018-06-04T13:13:04.248Z,33.40
2018-06-04T13:15:34.326Z,33.20
2018-06-04T13:18:04.582Z,32.50
2018-06-04T13:20:35.590Z,32.60
2018-06-04T13:23:05.892Z,32.50
2018-06-04T13:25:35.967Z,32.30
2018-06-04T13:28:06.250Z,31.90
2018-06-04T13:30:36.384Z,31.90
2018-06-04T13:33:06.704Z,31.70
2018-06-04T13:35:36.820Z,32.10
2018-06-04T13:38:06.940Z,33.30
2018-06-04T13:40:37.071Z,33.60
2018-06-04T13:43:07.120Z,33.70
2018-06-04T13:45:37.346Z,32.90
2018-06-04T13:48:07.443Z,32.90
2018-06-04T13:50:37.686Z,32.30
2018-06-04T13:53:08.009Z,32.30
2018-06-04T13:55:38.099Z,31.50
2018-06-04T13:58:08.267Z,31.80
2018-06-04T14:00:38.389Z,32.20
2018-06-04T14:03:08.593Z,31.90
2018-06-04T14:05:38.723Z,33.80
2018-06-04T14:08:09.398Z,29.70
2018-06-04T14:10:39.739Z,26.20
2018-06-04T14:13:09.859Z,23.40
2018-06-04T14:15:39.931Z,21.50
2018-06-04T14:18:10.097Z,19.10
2018-06-04T14:20:40.301Z,18.10
2018-06-04T14:23:10.717Z,18.00
2018-06-04T14:25:40.781Z,18.40
2018-06-04T14:28:10.881Z,19.80
2018-06-04T14:30:41.064Z,21.00
2018-06-04T14:33:11.164Z,22.70
2018-06-04T14:35:41.293Z,24.00
2018-06-04T14:38:11.443Z,25.00
2018-06-04T14:40:41.467Z,26.40
2018-06-04T14:43:11.688Z,27.10
2018-06-04T14:45:41.871Z,27.50
2018-06-04T14:48:15.001Z,25.50
2018-06-04T14:50:45.903Z,22.50
2018-06-04T14:53:16.043Z,18.90
2018-06-04T14:55:46.109Z,17.00
2018-06-04T14:58:16.181Z,15.50
2018-06-04T15:00:46.314Z,14.40
2018-06-04T15:03:16.925Z,14.00
2018-06-04T15:05:47.072Z,14.00
2018-06-04T15:08:17.150Z,12.30
2018-06-04T15:10:47.280Z,12.80
2018-06-04T15:13:18.388Z,13.50
2018-06-04T15:15:48.473Z,13.80
2018-06-04T15:18:18.644Z,13.40
2018-06-04T15:20:48.846Z,14.00
2018-06-04T15:23:18.974Z,16.20
2018-06-04T15:25:49.115Z,18.30
2018-06-04T15:28:19.295Z,19.60
2018-06-04T15:30:49.997Z,18.60
2018-06-04T15:33:20.186Z,19.30
2018-06-04T15:35:50.351Z,21.90
2018-06-04T15:38:20.503Z,23.00
2018-06-04T15:40:50.689Z,24.20
2018-06-04T15:43:20.850Z,20.70
2018-06-04T15:45:51.020Z,18.20
2018-06-04T15:48:25.246Z,16.80
2018-06-04T15:50:55.818Z,15.00
2018-06-04T15:53:25.925Z,13.70
2018-06-04T15:55:56.108Z,13.40
2018-06-04T15:58:26.257Z,15.10
2018-06-04T16:00:56.428Z,17.20
2018-06-04T16:03:26.599Z,19.20
2018-06-04T16:05:56.652Z,21.10
2018-06-04T16:08:26.843Z,22.40
2018-06-04T16:10:56.936Z,23.50
2018-06-04T16:13:27.236Z,24.00
2018-06-04T16:15:57.276Z,24.50
2018-06-04T16:18:27.393Z,24.40
2018-06-04T16:20:57.591Z,24.40
2018-06-04T16:23:27.650Z,25.10
2018-06-04T16:25:57.738Z,24.90
2018-06-04T16:28:28.399Z,24.30
2018-06-04T16:30:58.601Z,24.20
2018-06-04T16:33:28.755Z,24.20
2018-06-04T16:36:00.018Z,24.40
2018-06-04T16:38:30.399Z,25.20
2018-06-04T16:41:00.736Z,25.60
2018-06-04T16:43:31.472Z,26.10
2018-06-04T16:46:01.668Z,26.20
2018-06-04T16:48:31.745Z,26.50
2018-06-04T16:51:01.907Z,26.70
2018-06-04T16:53:31.999Z,26.00
2018-06-04T16:56:02.274Z,26.20
2018-06-04T16:58:32.333Z,26.00
2018-06-04T17:01:02.485Z,26.40
2018-06-04T17:03:32.937Z,26.60
2018-06-04T17:06:03.045Z,26.50
2018-06-04T17:08:33.798Z,26.40
2018-06-04T17:11:03.983Z,26.50
2018-06-04T17:13:35.052Z,26.70
2018-06-04T17:16:05.657Z,27.10
2018-06-04T17:18:35.763Z,27.00
2018-06-04T17:21:06.329Z,26.60
2018-06-04T17:23:37.685Z,26.80
2018-06-04T17:26:07.817Z,27.20
2018-06-04T17:28:37.975Z,27.70
2018-06-04T17:31:08.009Z,28.00
2018-06-04T17:33:39.403Z,28.40
2018-06-04T17:36:09.572Z,28.60
2018-06-04T17:38:39.853Z,29.00
2018-06-04T17:41:10.012Z,28.70
2018-06-04T17:43:40.279Z,29.40
2018-06-04T17:46:10.494Z,29.60
2018-06-04T17:48:40.735Z,29.80
2018-06-04T17:51:10.839Z,29.90
2018-06-04T17:53:41.053Z,30.00
2018-06-04T17:56:11.198Z,30.10
2018-06-04T17:58:41.310Z,30.30
2018-06-04T18:01:11.529Z,30.40
2018-06-04T18:03:41.808Z,30.30
2018-06-04T18:06:11.961Z,30.50
2018-06-04T18:08:42.182Z,30.60
2018-06-04T18:11:12.259Z,30.80
2018-06-04T18:13:42.393Z,31.10
2018-06-04T18:16:13.437Z,31.20
2018-06-04T18:18:43.512Z,31.60
2018-06-04T18:21:13.813Z,31.50
2018-06-04T18:23:44.475Z,31.80
2018-06-04T18:26:15.140Z,32.10
2018-06-04T18:28:45.176Z,32.40
2018-06-04T18:31:15.325Z,32.70
2018-06-04T18:33:45.800Z,32.90
2018-06-04T18:36:15.973Z,33.10
2018-06-04T18:38:46.117Z,33.40
2018-06-04T18:41:16.319Z,33.80
2018-06-04T18:43:46.489Z,34.70
2018-06-04T18:46:16.642Z,34.60
2018-06-04T18:48:46.857Z,34.60
2018-06-04T18:51:17.133Z,34.60
2018-06-04T18:53:47.314Z,35.40
2018-06-04T18:56:17.660Z,36.30
2018-06-04T18:58:47.740Z,37.40
2018-06-04T19:01:17.905Z,37.80
2018-06-04T19:03:48.813Z,38.40
2018-06-04T19:06:18.936Z,39.10
2018-06-04T19:08:49.001Z,38.40
2018-06-04T19:11:19.769Z,39.30
2018-06-04T19:13:49.868Z,39.20
2018-06-04T19:16:20.050Z,39.40
2018-06-04T19:18:50.133Z,39.10
2018-06-04T19:21:20.300Z,39.40
2018-06-04T19:23:50.948Z,39.20
2018-06-04T19:26:21.150Z,39.10
2018-06-04T19:28:52.168Z,39.10
2018-06-04T19:31:22.300Z,39.20
2018-06-04T19:33:53.782Z,39.40
2018-06-04T19:36:23.887Z,39.40
2018-06-04T19:38:54.045Z,39.50
2018-06-04T19:41:24.132Z,39.80
2018-06-04T19:43:54.759Z,39.90
2018-06-04T19:46:24.887Z,40.00
2018-06-04T19:48:55.034Z,40.20
2018-06-04T19:51:25.292Z,41.00
2018-06-04T19:53:55.428Z,40.80
2018-06-04T19:56:25.548Z,40.90
2018-06-04T19:58:56.265Z,41.20
2018-06-04T20:01:26.370Z,41.50
2018-06-04T20:03:57.364Z,42.00
2018-06-04T20:06:27.468Z,42.30
2018-06-04T20:08:57.450Z,42.40
2018-06-04T20:11:27.587Z,42.60
2018-06-04T20:13:58.410Z,42.70
2018-06-04T20:16:28.653Z,42.90
2018-06-04T20:21:28.480Z,43.20
2018-06-04T20:23:58.477Z,43.30
2018-06-04T20:26:28.607Z,43.60
2018-06-04T20:28:58.799Z,43.90
2018-06-04T20:31:28.919Z,44.30
2018-06-04T20:33:59.015Z,44.10
2018-06-04T20:36:29.098Z,44.30
2018-06-04T20:38:59.046Z,44.80
2018-06-04T20:41:28.995Z,45.30
2018-06-04T20:43:59.051Z,45.50
2018-06-04T20:46:29.098Z,45.70
2018-06-04T20:48:59.201Z,45.90
2018-06-04T20:51:29.215Z,46.10
2018-06-04T20:53:59.269Z,46.10
2018-06-04T20:56:29.282Z,46.50
2018-06-04T20:58:59.293Z,46.50
2018-06-04T21:01:29.402Z,46.60
2018-06-04T21:03:59.527Z,47.50
2018-06-04T21:06:29.743Z,47.20
2018-06-04T21:08:59.801Z,47.40
2018-06-04T21:11:29.946Z,47.50
2018-06-04T21:14:00.081Z,47.70
2018-06-04T21:16:30.698Z,47.80
2018-06-04T21:19:00.863Z,47.90
2018-06-04T21:21:31.162Z,48.10
2018-06-04T21:24:01.195Z,48.20
2018-06-04T21:26:31.331Z,48.10
2018-06-04T21:29:01.429Z,48.10
2018-06-04T21:31:31.591Z,48.40
2018-06-04T21:34:01.746Z,48.60
2018-06-04T21:36:31.801Z,49.00
2018-06-04T21:39:01.814Z,49.30
2018-06-04T21:41:31.933Z,49.70
2018-06-04T21:44:02.037Z,50.00
2018-06-04T21:46:32.147Z,50.10
2018-06-04T21:49:02.323Z,50.40
2018-06-04T21:51:32.394Z,50.40
2018-06-04T21:54:02.485Z,50.70
2018-06-04T21:56:32.650Z,50.80
2018-06-04T21:59:03.234Z,50.80
2018-06-04T22:01:34.245Z,50.80
2018-06-04T22:04:04.429Z,50.90
2018-06-04T22:06:34.618Z,51.10
2018-06-04T22:09:06.947Z,51.50
2018-06-04T22:11:37.176Z,51.10
2018-06-04T22:14:07.886Z,51.10
2018-06-04T22:16:38.133Z,51.40
2018-06-04T22:19:08.286Z,51.30
2018-06-04T22:21:38.503Z,51.30
2018-06-04T22:24:09.038Z,51.40
2018-06-04T22:26:39.141Z,51.20
2018-06-04T22:29:09.196Z,50.90
2018-06-04T22:31:39.312Z,51.00
2018-06-04T22:34:09.354Z,50.80
2018-06-04T22:39:10.458Z,50.80
2018-06-04T22:41:40.603Z,50.90
2018-06-04T22:44:10.761Z,51.00
2018-06-04T22:46:40.891Z,51.00
2018-06-04T22:49:10.991Z,51.00
2018-06-04T22:51:42.522Z,51.10
2018-06-04T22:54:12.971Z,51.10
2018-06-04T22:56:43.091Z,51.60
2018-06-04T22:59:14.821Z,51.90
2018-06-04T23:01:44.945Z,52.20
2018-06-04T23:04:15.055Z,52.40
2018-06-04T23:06:45.250Z,52.30
2018-06-04T23:09:15.293Z,52.70
2018-06-04T23:14:15.119Z,53.30
2018-06-04T23:16:45.161Z,53.10
2018-06-04T23:19:15.267Z,52.50
2018-06-04T23:21:45.395Z,52.30
2018-06-04T23:24:15.506Z,52.80
2018-06-04T23:26:45.644Z,52.10
2018-06-04T23:29:15.672Z,52.00
2018-06-04T23:31:45.774Z,52.00
2018-06-04T23:34:15.968Z,52.20
2018-06-04T23:36:46.014Z,52.30
2018-06-04T23:39:16.077Z,52.20
2018-06-04T23:41:46.172Z,52.40
2018-06-04T23:44:16.334Z,52.40
2018-06-04T23:46:46.532Z,52.40
2018-06-04T23:49:16.636Z,52.60
2018-06-04T23:51:46.772Z,52.80
2018-06-04T23:54:16.838Z,53.10
2018-06-04T23:56:46.980Z,53.30
2018-06-04T23:59:17.091Z,53.20
